sensor_id;sensor_type;location;lat;lon;timestamp;P1;durP1;ratioP1;P2;durP2;ratioP2
69381;SDS011;56560;50.692;12.844;2023-04-15T00:00:45;8.57;;;2.80;;
69381;SDS011;56560;50.692;12.844;2023-04-15T00:03:10;9.25;;;2.97;;
69381;SDS011;56560;50.692;12.844;2023-04-15T00:05:36;8.77;;;2.88;;
69381;SDS011;56560;50.692;12.844;2023-04-15T00:08:02;9.00;;;3.00;;
69381;SDS011;56560;50.692;12.844;2023-04-15T00:10:28;8.20;;;2.77;;
69381;SDS011;56560;50.692;12.844;2023-04-15T00:12:53;7.13;;;2.40;;
69381;SDS011;56560;50.692;12.844;2023-04-15T00:15:19;8.47;;;2.70;;
69381;SDS011;56560;50.692;12.844;2023-04-15T00:17:45;8.32;;;2.53;;
69381;SDS011;56560;50.692;12.844;2023-04-15T00:20:11;7.53;;;2.33;;
69381;SDS011;56560;50.692;12.844;2023-04-15T00:22:36;9.02;;;2.80;;
69381;SDS011;56560;50.692;12.844;2023-04-15T00:25:02;8.07;;;2.47;;
69381;SDS011;56560;50.692;12.844;2023-04-15T00:27:28;7.32;;;2.40;;
69381;SDS011;56560;50.692;12.844;2023-04-15T00:29:54;8.07;;;2.60;;
69381;SDS011;56560;50.692;12.844;2023-04-15T00:32:20;7.40;;;2.33;;
69381;SDS011;56560;50.692;12.844;2023-04-15T00:34:46;7.38;;;2.40;;
69381;SDS011;56560;50.692;12.844;2023-04-15T00:37:11;8.30;;;2.70;;
69381;SDS011;56560;50.692;12.844;2023-04-15T00:39:37;7.82;;;2.40;;
69381;SDS011;56560;50.692;12.844;2023-04-15T00:42:03;8.60;;;2.60;;
69381;SDS011;56560;50.692;12.844;2023-04-15T00:44:29;8.10;;;2.67;;
69381;SDS011;56560;50.692;12.844;2023-04-15T00:46:56;8.07;;;2.45;;
69381;SDS011;56560;50.692;12.844;2023-04-15T00:49:22;8.23;;;2.72;;
69381;SDS011;56560;50.692;12.844;2023-04-15T00:51:49;7.35;;;2.40;;
69381;SDS011;56560;50.692;12.844;2023-04-15T00:54:15;8.90;;;2.50;;
69381;SDS011;56560;50.692;12.844;2023-04-15T00:56:41;7.28;;;2.45;;
69381;SDS011;56560;50.692;12.844;2023-04-15T00:59:07;7.63;;;2.45;;
69381;SDS011;56560;50.692;12.844;2023-04-15T01:01:33;8.43;;;2.60;;
69381;SDS011;56560;50.692;12.844;2023-04-15T01:04:00;7.95;;;2.47;;
69381;SDS011;56560;50.692;12.844;2023-04-15T01:06:26;7.90;;;2.53;;
69381;SDS011;56560;50.692;12.844;2023-04-15T01:08:56;7.90;;;2.60;;
69381;SDS011;56560;50.692;12.844;2023-04-15T01:11:22;7.20;;;2.22;;
69381;SDS011;56560;50.692;12.844;2023-04-15T01:13:48;7.28;;;2.53;;
69381;SDS011;56560;50.692;12.844;2023-04-15T01:16:22;7.45;;;2.35;;
69381;SDS011;56560;50.692;12.844;2023-04-15T01:18:48;7.47;;;2.50;;
69381;SDS011;56560;50.692;12.844;2023-04-15T01:21:14;9.40;;;2.70;;
69381;SDS011;56560;50.692;12.844;2023-04-15T01:23:39;7.73;;;2.47;;
69381;SDS011;56560;50.692;12.844;2023-04-15T01:26:06;7.57;;;2.30;;
69381;SDS011;56560;50.692;12.844;2023-04-15T01:28:35;7.13;;;2.40;;
69381;SDS011;56560;50.692;12.844;2023-04-15T01:31:19;8.50;;;2.40;;
69381;SDS011;56560;50.692;12.844;2023-04-15T01:33:46;7.13;;;2.20;;
69381;SDS011;56560;50.692;12.844;2023-04-15T01:36:11;8.20;;;2.60;;
69381;SDS011;56560;50.692;12.844;2023-04-15T01:38:37;7.57;;;2.50;;
69381;SDS011;56560;50.692;12.844;2023-04-15T01:41:03;7.93;;;2.60;;
69381;SDS011;56560;50.692;12.844;2023-04-15T01:43:30;8.18;;;2.72;;
69381;SDS011;56560;50.692;12.844;2023-04-15T01:45:57;8.98;;;2.95;;
69381;SDS011;56560;50.692;12.844;2023-04-15T01:48:22;8.63;;;2.63;;
69381;SDS011;56560;50.692;12.844;2023-04-15T01:50:48;8.50;;;2.63;;
69381;SDS011;56560;50.692;12.844;2023-04-15T01:53:13;8.98;;;2.60;;
69381;SDS011;56560;50.692;12.844;2023-04-15T01:55:40;7.55;;;2.35;;
69381;SDS011;56560;50.692;12.844;2023-04-15T01:58:05;8.10;;;2.60;;
69381;SDS011;56560;50.692;12.844;2023-04-15T02:00:31;8.57;;;2.50;;
69381;SDS011;56560;50.692;12.844;2023-04-15T02:02:57;8.57;;;2.80;;
69381;SDS011;56560;50.692;12.844;2023-04-15T02:05:23;7.65;;;2.60;;
69381;SDS011;56560;50.692;12.844;2023-04-15T02:07:49;7.88;;;2.58;;
69381;SDS011;56560;50.692;12.844;2023-04-15T02:10:15;8.35;;;2.90;;
69381;SDS011;56560;50.692;12.844;2023-04-15T02:12:41;7.70;;;2.50;;
69381;SDS011;56560;50.692;12.844;2023-04-15T02:15:07;8.27;;;2.75;;
69381;SDS011;56560;50.692;12.844;2023-04-15T02:17:34;7.93;;;2.60;;
69381;SDS011;56560;50.692;12.844;2023-04-15T02:20:01;8.45;;;2.80;;
69381;SDS011;56560;50.692;12.844;2023-04-15T02:22:29;8.53;;;2.57;;
69381;SDS011;56560;50.692;12.844;2023-04-15T02:24:55;8.18;;;2.70;;
69381;SDS011;56560;50.692;12.844;2023-04-15T02:27:21;7.77;;;2.40;;
69381;SDS011;56560;50.692;12.844;2023-04-15T02:29:47;7.03;;;2.30;;
69381;SDS011;56560;50.692;12.844;2023-04-15T02:32:15;8.73;;;2.72;;
69381;SDS011;56560;50.692;12.844;2023-04-15T02:34:41;8.68;;;2.88;;
69381;SDS011;56560;50.692;12.844;2023-04-15T02:37:07;8.48;;;2.80;;
69381;SDS011;56560;50.692;12.844;2023-04-15T02:39:33;8.50;;;2.65;;
69381;SDS011;56560;50.692;12.844;2023-04-15T02:41:58;9.20;;;2.60;;
69381;SDS011;56560;50.692;12.844;2023-04-15T02:44:25;7.85;;;2.20;;
69381;SDS011;56560;50.692;12.844;2023-04-15T02:46:51;8.52;;;2.63;;
69381;SDS011;56560;50.692;12.844;2023-04-15T02:49:22;7.30;;;2.40;;
69381;SDS011;56560;50.692;12.844;2023-04-15T02:51:47;7.03;;;2.30;;
69381;SDS011;56560;50.692;12.844;2023-04-15T02:54:22;7.65;;;2.38;;
69381;SDS011;56560;50.692;12.844;2023-04-15T02:56:48;5.90;;;2.10;;
69381;SDS011;56560;50.692;12.844;2023-04-15T02:59:14;6.57;;;2.30;;
69381;SDS011;56560;50.692;12.844;2023-04-15T03:01:40;7.37;;;2.30;;
69381;SDS011;56560;50.692;12.844;2023-04-15T03:04:06;6.40;;;2.03;;
69381;SDS011;56560;50.692;12.844;2023-04-15T03:06:33;6.32;;;1.98;;
69381;SDS011;56560;50.692;12.844;2023-04-15T03:08:59;6.70;;;2.05;;
69381;SDS011;56560;50.692;12.844;2023-04-15T03:11:26;6.70;;;2.20;;
69381;SDS011;56560;50.692;12.844;2023-04-15T03:13:52;6.47;;;2.28;;
69381;SDS011;56560;50.692;12.844;2023-04-15T03:16:18;6.20;;;2.00;;
69381;SDS011;56560;50.692;12.844;2023-04-15T03:18:44;5.23;;;1.97;;
69381;SDS011;56560;50.692;12.844;2023-04-15T03:21:09;6.50;;;2.10;;
69381;SDS011;56560;50.692;12.844;2023-04-15T03:23:35;6.28;;;1.92;;
69381;SDS011;56560;50.692;12.844;2023-04-15T03:26:01;6.03;;;2.10;;
69381;SDS011;56560;50.692;12.844;2023-04-15T03:28:27;5.63;;;1.83;;
69381;SDS011;56560;50.692;12.844;2023-04-15T03:30:53;5.45;;;1.90;;
69381;SDS011;56560;50.692;12.844;2023-04-15T03:33:19;5.80;;;1.95;;
69381;SDS011;56560;50.692;12.844;2023-04-15T03:35:45;6.00;;;2.13;;
69381;SDS011;56560;50.692;12.844;2023-04-15T03:38:11;6.40;;;2.00;;
69381;SDS011;56560;50.692;12.844;2023-04-15T03:40:37;7.47;;;2.30;;
69381;SDS011;56560;50.692;12.844;2023-04-15T03:43:05;5.68;;;1.90;;
69381;SDS011;56560;50.692;12.844;2023-04-15T03:45:31;6.57;;;2.10;;
69381;SDS011;56560;50.692;12.844;2023-04-15T03:47:57;5.82;;;1.90;;
69381;SDS011;56560;50.692;12.844;2023-04-15T03:50:22;4.80;;;1.70;;
69381;SDS011;56560;50.692;12.844;2023-04-15T03:52:48;5.30;;;1.80;;
69381;SDS011;56560;50.692;12.844;2023-04-15T03:55:16;6.55;;;2.10;;
69381;SDS011;56560;50.692;12.844;2023-04-15T03:57:42;5.33;;;1.80;;
69381;SDS011;56560;50.692;12.844;2023-04-15T04:00:07;7.43;;;2.08;;
69381;SDS011;56560;50.692;12.844;2023-04-15T04:02:36;5.45;;;1.90;;
69381;SDS011;56560;50.692;12.844;2023-04-15T04:05:02;6.33;;;1.90;;
69381;SDS011;56560;50.692;12.844;2023-04-15T04:07:28;5.25;;;1.92;;
69381;SDS011;56560;50.692;12.844;2023-04-15T04:09:55;6.75;;;2.03;;
69381;SDS011;56560;50.692;12.844;2023-04-15T04:12:21;6.47;;;2.13;;
69381;SDS011;56560;50.692;12.844;2023-04-15T04:14:47;6.05;;;2.20;;
69381;SDS011;56560;50.692;12.844;2023-04-15T04:17:12;7.57;;;2.00;;
69381;SDS011;56560;50.692;12.844;2023-04-15T04:19:38;7.10;;;2.35;;
69381;SDS011;56560;50.692;12.844;2023-04-15T04:22:04;6.00;;;2.00;;
69381;SDS011;56560;50.692;12.844;2023-04-15T04:24:30;6.03;;;2.15;;
69381;SDS011;56560;50.692;12.844;2023-04-15T04:26:56;7.87;;;2.53;;
69381;SDS011;56560;50.692;12.844;2023-04-15T04:29:22;9.63;;;3.10;;
69381;SDS011;56560;50.692;12.844;2023-04-15T04:31:47;9.63;;;3.50;;
69381;SDS011;56560;50.692;12.844;2023-04-15T04:34:13;9.67;;;3.33;;
69381;SDS011;56560;50.692;12.844;2023-04-15T04:36:39;10.35;;;3.30;;
69381;SDS011;56560;50.692;12.844;2023-04-15T04:39:05;9.40;;;3.30;;
69381;SDS011;56560;50.692;12.844;2023-04-15T04:41:31;10.45;;;3.50;;
69381;SDS011;56560;50.692;12.844;2023-04-15T04:43:57;10.60;;;3.67;;
69381;SDS011;56560;50.692;12.844;2023-04-15T04:46:23;10.07;;;3.15;;
69381;SDS011;56560;50.692;12.844;2023-04-15T04:48:49;10.57;;;3.80;;
69381;SDS011;56560;50.692;12.844;2023-04-15T04:51:14;15.20;;;6.50;;
69381;SDS011;56560;50.692;12.844;2023-04-15T04:53:40;16.95;;;6.78;;
69381;SDS011;56560;50.692;12.844;2023-04-15T04:56:07;12.93;;;5.00;;
69381;SDS011;56560;50.692;12.844;2023-04-15T04:58:33;15.17;;;5.73;;
69381;SDS011;56560;50.692;12.844;2023-04-15T05:00:58;10.63;;;3.65;;
69381;SDS011;56560;50.692;12.844;2023-04-15T05:03:24;9.55;;;3.63;;
69381;SDS011;56560;50.692;12.844;2023-04-15T05:05:51;7.72;;;2.65;;
69381;SDS011;56560;50.692;12.844;2023-04-15T05:08:17;8.50;;;2.90;;
69381;SDS011;56560;50.692;12.844;2023-04-15T05:10:42;9.00;;;2.97;;
69381;SDS011;56560;50.692;12.844;2023-04-15T05:13:08;10.15;;;3.40;;
69381;SDS011;56560;50.692;12.844;2023-04-15T05:15:33;8.90;;;3.10;;
69381;SDS011;56560;50.692;12.844;2023-04-15T05:18:01;9.68;;;3.33;;
69381;SDS011;56560;50.692;12.844;2023-04-15T05:20:27;8.23;;;2.90;;
69381;SDS011;56560;50.692;12.844;2023-04-15T05:22:53;8.80;;;2.83;;
69381;SDS011;56560;50.692;12.844;2023-04-15T05:25:18;9.18;;;3.25;;
69381;SDS011;56560;50.692;12.844;2023-04-15T05:27:44;10.27;;;3.47;;
69381;SDS011;56560;50.692;12.844;2023-04-15T05:30:09;8.15;;;2.80;;
69381;SDS011;56560;50.692;12.844;2023-04-15T05:32:36;8.65;;;3.00;;
69381;SDS011;56560;50.692;12.844;2023-04-15T05:35:01;8.68;;;2.97;;
69381;SDS011;56560;50.692;12.844;2023-04-15T05:37:27;9.57;;;2.92;;
69381;SDS011;56560;50.692;12.844;2023-04-15T05:39:53;8.70;;;2.90;;
69381;SDS011;56560;50.692;12.844;2023-04-15T05:42:18;8.43;;;2.90;;
69381;SDS011;56560;50.692;12.844;2023-04-15T05:44:44;8.52;;;2.85;;
69381;SDS011;56560;50.692;12.844;2023-04-15T05:47:10;8.63;;;3.00;;
69381;SDS011;56560;50.692;12.844;2023-04-15T05:49:35;9.63;;;3.35;;
69381;SDS011;56560;50.692;12.844;2023-04-15T05:52:01;9.80;;;3.60;;
69381;SDS011;56560;50.692;12.844;2023-04-15T05:54:27;9.35;;;3.33;;
69381;SDS011;56560;50.692;12.844;2023-04-15T05:56:53;9.32;;;3.17;;
69381;SDS011;56560;50.692;12.844;2023-04-15T05:59:19;8.32;;;2.70;;
69381;SDS011;56560;50.692;12.844;2023-04-15T06:01:44;9.45;;;3.10;;
69381;SDS011;56560;50.692;12.844;2023-04-15T06:04:10;8.33;;;2.70;;
69381;SDS011;56560;50.692;12.844;2023-04-15T06:06:36;8.43;;;2.20;;
69381;SDS011;56560;50.692;12.844;2023-04-15T06:09:02;9.30;;;2.65;;
69381;SDS011;56560;50.692;12.844;2023-04-15T06:11:28;7.47;;;2.70;;
69381;SDS011;56560;50.692;12.844;2023-04-15T06:13:53;7.85;;;2.60;;
69381;SDS011;56560;50.692;12.844;2023-04-15T06:16:19;7.28;;;2.25;;
69381;SDS011;56560;50.692;12.844;2023-04-15T06:18:45;7.97;;;2.33;;
69381;SDS011;56560;50.692;12.844;2023-04-15T06:21:10;7.13;;;2.17;;
69381;SDS011;56560;50.692;12.844;2023-04-15T06:23:36;7.03;;;2.30;;
69381;SDS011;56560;50.692;12.844;2023-04-15T06:26:02;6.97;;;2.60;;
69381;SDS011;56560;50.692;12.844;2023-04-15T06:28:27;7.30;;;2.10;;
69381;SDS011;56560;50.692;12.844;2023-04-15T06:30:53;6.93;;;2.28;;
69381;SDS011;56560;50.692;12.844;2023-04-15T06:33:19;7.78;;;2.83;;
69381;SDS011;56560;50.692;12.844;2023-04-15T06:35:45;7.82;;;2.33;;
69381;SDS011;56560;50.692;12.844;2023-04-15T06:38:11;9.10;;;2.50;;
69381;SDS011;56560;50.692;12.844;2023-04-15T06:40:39;9.15;;;3.00;;
69381;SDS011;56560;50.692;12.844;2023-04-15T06:43:05;8.27;;;2.67;;
69381;SDS011;56560;50.692;12.844;2023-04-15T06:45:30;9.05;;;2.63;;
69381;SDS011;56560;50.692;12.844;2023-04-15T06:47:56;6.83;;;2.40;;
69381;SDS011;56560;50.692;12.844;2023-04-15T06:50:22;6.45;;;2.00;;
69381;SDS011;56560;50.692;12.844;2023-04-15T06:52:47;6.80;;;2.30;;
69381;SDS011;56560;50.692;12.844;2023-04-15T06:55:13;6.10;;;2.30;;
69381;SDS011;56560;50.692;12.844;2023-04-15T06:57:39;9.43;;;2.97;;
69381;SDS011;56560;50.692;12.844;2023-04-15T07:00:05;8.57;;;3.22;;
69381;SDS011;56560;50.692;12.844;2023-04-15T07:02:31;10.43;;;3.40;;
69381;SDS011;56560;50.692;12.844;2023-04-15T07:04:57;8.23;;;3.05;;
69381;SDS011;56560;50.692;12.844;2023-04-15T07:07:23;7.33;;;2.47;;
69381;SDS011;56560;50.692;12.844;2023-04-15T07:09:49;8.27;;;2.40;;
69381;SDS011;56560;50.692;12.844;2023-04-15T07:12:16;7.07;;;2.53;;
69381;SDS011;56560;50.692;12.844;2023-04-15T07:14:42;4.00;;;1.73;;
69381;SDS011;56560;50.692;12.844;2023-04-15T07:17:08;4.57;;;1.70;;
69381;SDS011;56560;50.692;12.844;2023-04-15T07:19:34;6.55;;;2.13;;
69381;SDS011;56560;50.692;12.844;2023-04-15T07:22:00;7.43;;;2.50;;
69381;SDS011;56560;50.692;12.844;2023-04-15T07:24:25;7.13;;;2.20;;
69381;SDS011;56560;50.692;12.844;2023-04-15T07:26:54;6.97;;;2.13;;
69381;SDS011;56560;50.692;12.844;2023-04-15T07:29:23;6.95;;;2.17;;
69381;SDS011;56560;50.692;12.844;2023-04-15T07:34:53;5.82;;;2.08;;
69381;SDS011;56560;50.692;12.844;2023-04-15T17:40:54;21.55;;;9.40;;
69381;SDS011;56560;50.692;12.844;2023-04-15T17:43:19;22.20;;;10.40;;
69381;SDS011;56560;50.692;12.844;2023-04-15T17:45:45;22.13;;;10.03;;
69381;SDS011;56560;50.692;12.844;2023-04-15T17:48:11;23.63;;;10.95;;
69381;SDS011;56560;50.692;12.844;2023-04-15T17:50:37;24.88;;;10.73;;
69381;SDS011;56560;50.692;12.844;2023-04-15T17:53:04;23.55;;;10.73;;
69381;SDS011;56560;50.692;12.844;2023-04-15T17:55:33;23.05;;;10.43;;
69381;SDS011;56560;50.692;12.844;2023-04-15T17:57:59;26.10;;;11.38;;
69381;SDS011;56560;50.692;12.844;2023-04-15T18:00:24;51.58;;;19.25;;
69381;SDS011;56560;50.692;12.844;2023-04-15T18:02:50;23.57;;;10.43;;
69381;SDS011;56560;50.692;12.844;2023-04-15T18:05:16;46.72;;;15.60;;
69381;SDS011;56560;50.692;12.844;2023-04-15T18:07:43;30.50;;;11.80;;
69381;SDS011;56560;50.692;12.844;2023-04-15T18:10:09;34.43;;;13.83;;
69381;SDS011;56560;50.692;12.844;2023-04-15T18:12:35;40.72;;;17.67;;
69381;SDS011;56560;50.692;12.844;2023-04-15T18:15:01;24.77;;;11.30;;
69381;SDS011;56560;50.692;12.844;2023-04-15T18:17:28;23.88;;;10.32;;
69381;SDS011;56560;50.692;12.844;2023-04-15T18:19:54;21.27;;;9.70;;
69381;SDS011;56560;50.692;12.844;2023-04-15T18:22:20;22.85;;;10.25;;
69381;SDS011;56560;50.692;12.844;2023-04-15T18:24:45;22.25;;;10.07;;
69381;SDS011;56560;50.692;12.844;2023-04-15T18:27:13;22.50;;;10.07;;
69381;SDS011;56560;50.692;12.844;2023-04-15T18:29:40;22.52;;;9.68;;
69381;SDS011;56560;50.692;12.844;2023-04-15T18:32:06;22.98;;;10.30;;
69381;SDS011;56560;50.692;12.844;2023-04-15T18:34:32;22.67;;;9.60;;
69381;SDS011;56560;50.692;12.844;2023-04-15T18:36:58;21.73;;;9.63;;
69381;SDS011;56560;50.692;12.844;2023-04-15T18:39:24;22.35;;;10.00;;
69381;SDS011;56560;50.692;12.844;2023-04-15T18:41:51;24.88;;;10.43;;
69381;SDS011;56560;50.692;12.844;2023-04-15T18:44:17;23.60;;;10.32;;
69381;SDS011;56560;50.692;12.844;2023-04-15T18:46:43;23.95;;;10.50;;
69381;SDS011;56560;50.692;12.844;2023-04-15T18:49:10;25.73;;;10.20;;
69381;SDS011;56560;50.692;12.844;2023-04-15T18:51:36;22.42;;;10.07;;
69381;SDS011;56560;50.692;12.844;2023-04-15T18:54:01;23.73;;;10.50;;
69381;SDS011;56560;50.692;12.844;2023-04-15T18:56:27;23.90;;;10.77;;
69381;SDS011;56560;50.692;12.844;2023-04-15T18:58:54;27.15;;;10.90;;
69381;SDS011;56560;50.692;12.844;2023-04-15T19:01:19;24.88;;;11.20;;
69381;SDS011;56560;50.692;12.844;2023-04-15T19:03:45;24.88;;;11.02;;
69381;SDS011;56560;50.692;12.844;2023-04-15T19:06:11;26.98;;;11.88;;
69381;SDS011;56560;50.692;12.844;2023-04-15T19:08:37;29.73;;;12.90;;
69381;SDS011;56560;50.692;12.844;2023-04-15T19:11:02;24.80;;;10.77;;
69381;SDS011;56560;50.692;12.844;2023-04-15T19:13:28;24.80;;;10.30;;
69381;SDS011;56560;50.692;12.844;2023-04-15T19:15:54;23.50;;;10.38;;
69381;SDS011;56560;50.692;12.844;2023-04-15T19:18:20;22.50;;;10.43;;
69381;SDS011;56560;50.692;12.844;2023-04-15T19:20:46;24.52;;;10.40;;
69381;SDS011;56560;50.692;12.844;2023-04-15T19:23:14;26.55;;;10.77;;
69381;SDS011;56560;50.692;12.844;2023-04-15T19:25:40;25.58;;;11.35;;
69381;SDS011;56560;50.692;12.844;2023-04-15T19:28:05;25.67;;;10.70;;
69381;SDS011;56560;50.692;12.844;2023-04-15T19:30:34;24.77;;;10.80;;
69381;SDS011;56560;50.692;12.844;2023-04-15T19:33:00;24.67;;;10.63;;
69381;SDS011;56560;50.692;12.844;2023-04-15T19:35:26;26.33;;;11.10;;
69381;SDS011;56560;50.692;12.844;2023-04-15T19:37:51;28.13;;;11.47;;
69381;SDS011;56560;50.692;12.844;2023-04-15T19:40:17;26.23;;;11.30;;
69381;SDS011;56560;50.692;12.844;2023-04-15T19:42:43;32.83;;;14.33;;
69381;SDS011;56560;50.692;12.844;2023-04-15T19:45:08;27.73;;;13.20;;
69381;SDS011;56560;50.692;12.844;2023-04-15T19:47:35;32.88;;;13.32;;
69381;SDS011;56560;50.692;12.844;2023-04-15T19:50:00;31.05;;;12.15;;
69381;SDS011;56560;50.692;12.844;2023-04-15T19:52:26;23.23;;;10.13;;
69381;SDS011;56560;50.692;12.844;2023-04-15T19:54:52;26.15;;;10.45;;
69381;SDS011;56560;50.692;12.844;2023-04-15T19:57:17;26.60;;;11.10;;
69381;SDS011;56560;50.692;12.844;2023-04-15T19:59:43;25.65;;;10.73;;
69381;SDS011;56560;50.692;12.844;2023-04-15T20:02:08;26.03;;;10.93;;
69381;SDS011;56560;50.692;12.844;2023-04-15T20:04:34;31.73;;;15.60;;
69381;SDS011;56560;50.692;12.844;2023-04-15T20:07:00;28.70;;;12.30;;
69381;SDS011;56560;50.692;12.844;2023-04-15T20:09:26;24.33;;;10.70;;
69381;SDS011;56560;50.692;12.844;2023-04-15T20:11:51;25.83;;;11.13;;
69381;SDS011;56560;50.692;12.844;2023-04-15T20:14:17;26.70;;;11.53;;
69381;SDS011;56560;50.692;12.844;2023-04-15T20:16:42;26.27;;;11.07;;
69381;SDS011;56560;50.692;12.844;2023-04-15T20:19:08;23.77;;;10.33;;
69381;SDS011;56560;50.692;12.844;2023-04-15T20:21:35;26.92;;;11.98;;
69381;SDS011;56560;50.692;12.844;2023-04-15T20:24:01;35.92;;;15.15;;
69381;SDS011;56560;50.692;12.844;2023-04-15T20:26:27;34.60;;;15.13;;
69381;SDS011;56560;50.692;12.844;2023-04-15T20:28:53;27.83;;;12.45;;
69381;SDS011;56560;50.692;12.844;2023-04-15T20:31:19;27.07;;;11.67;;
69381;SDS011;56560;50.692;12.844;2023-04-15T20:33:45;24.50;;;10.88;;
69381;SDS011;56560;50.692;12.844;2023-04-15T20:36:11;30.00;;;11.40;;
69381;SDS011;56560;50.692;12.844;2023-04-15T20:38:37;28.17;;;12.07;;
69381;SDS011;56560;50.692;12.844;2023-04-15T20:41:03;27.58;;;11.05;;
69381;SDS011;56560;50.692;12.844;2023-04-15T20:43:29;28.15;;;11.75;;
69381;SDS011;56560;50.692;12.844;2023-04-15T20:45:55;26.63;;;10.70;;
69381;SDS011;56560;50.692;12.844;2023-04-15T20:48:21;29.48;;;12.57;;
69381;SDS011;56560;50.692;12.844;2023-04-15T20:50:47;32.00;;;13.30;;
69381;SDS011;56560;50.692;12.844;2023-04-15T20:53:13;30.43;;;12.70;;
69381;SDS011;56560;50.692;12.844;2023-04-15T20:55:39;27.75;;;11.88;;
69381;SDS011;56560;50.692;12.844;2023-04-15T20:58:05;28.92;;;12.48;;
69381;SDS011;56560;50.692;12.844;2023-04-15T21:00:30;28.40;;;11.43;;
69381;SDS011;56560;50.692;12.844;2023-04-15T21:02:57;26.73;;;10.95;;
69381;SDS011;56560;50.692;12.844;2023-04-15T21:05:22;26.80;;;11.70;;
69381;SDS011;56560;50.692;12.844;2023-04-15T21:07:48;26.33;;;11.20;;
69381;SDS011;56560;50.692;12.844;2023-04-15T21:10:14;27.40;;;10.97;;
69381;SDS011;56560;50.692;12.844;2023-04-15T21:12:39;32.88;;;11.60;;
69381;SDS011;56560;50.692;12.844;2023-04-15T21:15:06;27.38;;;11.52;;
69381;SDS011;56560;50.692;12.844;2023-04-15T21:17:32;30.55;;;13.00;;
69381;SDS011;56560;50.692;12.844;2023-04-15T21:19:59;29.05;;;11.68;;
69381;SDS011;56560;50.692;12.844;2023-04-15T21:22:25;30.63;;;13.20;;
69381;SDS011;56560;50.692;12.844;2023-04-15T21:24:51;33.17;;;12.90;;
69381;SDS011;56560;50.692;12.844;2023-04-15T21:27:17;29.45;;;12.45;;
69381;SDS011;56560;50.692;12.844;2023-04-15T21:29:42;36.07;;;14.53;;
69381;SDS011;56560;50.692;12.844;2023-04-15T21:32:08;41.80;;;15.90;;
69381;SDS011;56560;50.692;12.844;2023-04-15T21:34:33;55.90;;;19.53;;
69381;SDS011;56560;50.692;12.844;2023-04-15T21:36:59;39.42;;;15.95;;
69381;SDS011;56560;50.692;12.844;2023-04-15T21:39:25;32.30;;;13.00;;
69381;SDS011;56560;50.692;12.844;2023-04-15T21:41:50;30.70;;;11.90;;
69381;SDS011;56560;50.692;12.844;2023-04-15T21:44:16;27.15;;;11.70;;
69381;SDS011;56560;50.692;12.844;2023-04-15T21:46:42;29.57;;;11.87;;
69381;SDS011;56560;50.692;12.844;2023-04-15T21:49:07;29.08;;;11.13;;
69381;SDS011;56560;50.692;12.844;2023-04-15T21:51:33;28.07;;;11.50;;
69381;SDS011;56560;50.692;12.844;2023-04-15T21:53:58;29.65;;;12.00;;
69381;SDS011;56560;50.692;12.844;2023-04-15T21:56:24;29.60;;;11.82;;
69381;SDS011;56560;50.692;12.844;2023-04-15T21:58:54;39.70;;;14.90;;
69381;SDS011;56560;50.692;12.844;2023-04-15T22:01:21;39.57;;;15.83;;
69381;SDS011;56560;50.692;12.844;2023-04-15T22:03:47;37.38;;;14.85;;
69381;SDS011;56560;50.692;12.844;2023-04-15T22:06:13;32.50;;;13.57;;
69381;SDS011;56560;50.692;12.844;2023-04-15T22:08:39;30.50;;;12.63;;
69381;SDS011;56560;50.692;12.844;2023-04-15T22:11:07;32.05;;;12.77;;
69381;SDS011;56560;50.692;12.844;2023-04-15T22:13:33;32.17;;;12.77;;
69381;SDS011;56560;50.692;12.844;2023-04-15T22:15:58;31.00;;;12.47;;
69381;SDS011;56560;50.692;12.844;2023-04-15T22:18:24;34.20;;;13.90;;
69381;SDS011;56560;50.692;12.844;2023-04-15T22:20:50;32.08;;;13.13;;
69381;SDS011;56560;50.692;12.844;2023-04-15T22:23:16;37.07;;;14.53;;
69381;SDS011;56560;50.692;12.844;2023-04-15T22:25:44;33.45;;;13.20;;
69381;SDS011;56560;50.692;12.844;2023-04-15T22:28:10;30.77;;;12.30;;
69381;SDS011;56560;50.692;12.844;2023-04-15T22:30:37;28.90;;;12.10;;
69381;SDS011;56560;50.692;12.844;2023-04-15T22:33:04;29.77;;;12.43;;
69381;SDS011;56560;50.692;12.844;2023-04-15T22:35:30;30.00;;;12.17;;
69381;SDS011;56560;50.692;12.844;2023-04-15T22:37:56;38.13;;;15.90;;
69381;SDS011;56560;50.692;12.844;2023-04-15T22:40:21;35.47;;;15.23;;
69381;SDS011;56560;50.692;12.844;2023-04-15T22:42:47;44.47;;;17.17;;
69381;SDS011;56560;50.692;12.844;2023-04-15T22:45:13;41.90;;;16.77;;
69381;SDS011;56560;50.692;12.844;2023-04-15T22:47:38;37.47;;;15.70;;
69381;SDS011;56560;50.692;12.844;2023-04-15T22:50:04;38.33;;;15.63;;
69381;SDS011;56560;50.692;12.844;2023-04-15T22:52:30;34.17;;;14.43;;
69381;SDS011;56560;50.692;12.844;2023-04-15T22:54:56;35.10;;;15.00;;
69381;SDS011;56560;50.692;12.844;2023-04-15T22:57:22;33.08;;;14.48;;
69381;SDS011;56560;50.692;12.844;2023-04-15T22:59:48;39.22;;;16.00;;
69381;SDS011;56560;50.692;12.844;2023-04-15T23:02:13;31.57;;;13.70;;
69381;SDS011;56560;50.692;12.844;2023-04-15T23:04:39;44.47;;;17.77;;
69381;SDS011;56560;50.692;12.844;2023-04-15T23:07:05;41.30;;;16.65;;
69381;SDS011;56560;50.692;12.844;2023-04-15T23:09:30;34.13;;;13.10;;
69381;SDS011;56560;50.692;12.844;2023-04-15T23:11:56;30.45;;;12.05;;
69381;SDS011;56560;50.692;12.844;2023-04-15T23:14:22;29.33;;;12.13;;
69381;SDS011;56560;50.692;12.844;2023-04-15T23:16:48;34.95;;;12.82;;
69381;SDS011;56560;50.692;12.844;2023-04-15T23:19:13;29.90;;;11.93;;
69381;SDS011;56560;50.692;12.844;2023-04-15T23:21:39;28.42;;;11.13;;
69381;SDS011;56560;50.692;12.844;2023-04-15T23:24:05;34.23;;;12.47;;
69381;SDS011;56560;50.692;12.844;2023-04-15T23:26:30;30.85;;;12.45;;
69381;SDS011;56560;50.692;12.844;2023-04-15T23:28:56;29.47;;;11.83;;
69381;SDS011;56560;50.692;12.844;2023-04-15T23:31:22;29.73;;;12.00;;
69381;SDS011;56560;50.692;12.844;2023-04-15T23:33:47;31.55;;;12.10;;
69381;SDS011;56560;50.692;12.844;2023-04-15T23:36:13;31.30;;;12.90;;
69381;SDS011;56560;50.692;12.844;2023-04-15T23:38:39;32.15;;;12.60;;
69381;SDS011;56560;50.692;12.844;2023-04-15T23:41:04;42.13;;;18.00;;
69381;SDS011;56560;50.692;12.844;2023-04-15T23:43:30;36.65;;;14.27;;
69381;SDS011;56560;50.692;12.844;2023-04-15T23:45:56;32.73;;;13.30;;
69381;SDS011;56560;50.692;12.844;2023-04-15T23:48:21;34.83;;;14.17;;
69381;SDS011;56560;50.692;12.844;2023-04-15T23:50:47;35.00;;;13.50;;
69381;SDS011;56560;50.692;12.844;2023-04-15T23:53:13;44.08;;;17.00;;
69381;SDS011;56560;50.692;12.844;2023-04-15T23:55:39;40.83;;;16.42;;
69381;SDS011;56560;50.692;12.844;2023-04-15T23:58:05;39.30;;;15.50;;
